Time;durP1;ratioP1;P1;durP2;ratioP2;P2;SDS_P1;SDS_P2;PMS_P1;PMS_P2;Temp;Humidity;BMP_temperature;BMP_pressure;BME280_temperature;BME280_humidity;BME280_pressure;Samples;Min_cycle;Max_cycle;Signal;HPM_P1;HPM_P2
2022/12/25 00:01:25;;;;;;;21.65;9.02;;;14.80;82.80;;;;;;4207038;28;20055;-65
2022/12/25 00:04:06;;;;;;;20.05;8.52;;;14.80;82.80;;;;;;4210779;28;20055;-65
2022/12/25 00:06:47;;;;;;;26.75;8.48;;;14.80;83.00;;;;;;4211702;28;20063;-62
2022/12/25 00:09:28;;;;;;;19.63;8.48;;;14.80;82.90;;;;;;4211846;28;20152;-62
2022/12/25 00:12:11;;;;;;;19.45;9.15;;;14.70;83.10;;;;;;4211785;28;20051;-61
2022/12/25 00:14:53;;;;;;;23.40;8.23;;;14.70;83.10;;;;;;4211712;28;20190;-61
2022/12/25 00:17:34;;;;;;;22.35;8.57;;;14.70;83.30;;;;;;4210971;28;20063;-62
2022/12/25 00:20:15;;;;;;;21.67;8.30;;;14.70;83.30;;;;;;4194500;28;20447;-62
2022/12/25 00:22:56;;;;;;;20.95;9.02;;;14.70;83.30;;;;;;4194341;28;20055;-62
2022/12/25 00:25:39;;;;;;;26.20;8.93;;;14.70;83.40;;;;;;4194697;28;20480;-62
2022/12/25 00:28:23;;;;;;;21.02;9.45;;;14.70;83.40;;;;;;4194271;28;20162;-62
2022/12/25 00:31:06;;;;;;;20.02;9.38;;;14.70;83.60;;;;;;4194459;28;20055;-62
2022/12/25 00:33:48;;;;;;;20.48;8.88;;;14.70;83.70;;;;;;4203989;28;20050;-66
2022/12/25 00:36:29;;;;;;;19.67;9.00;;;14.60;83.50;;;;;;4210375;28;20067;-65
2022/12/25 00:39:12;;;;;;;21.13;9.25;;;14.70;83.70;;;;;;4210826;28;20051;-65
2022/12/25 00:44:52;;;;;;;17.83;9.07;;;14.60;83.70;;;;;;4193343;28;20044;-65
2022/12/25 00:47:33;;;;;;;18.38;8.77;;;14.60;84.70;;;;;;4210423;28;20185;-65
2022/12/25 00:50:14;;;;;;;17.38;9.10;;;14.60;83.90;;;;;;4210255;28;20055;-65
2022/12/25 00:52:55;;;;;;;23.38;8.98;;;14.60;83.80;;;;;;4193747;28;20106;-65
2022/12/25 00:55:36;;;;;;;20.50;9.10;;;14.60;83.90;;;;;;4210494;28;20071;-65
2022/12/25 00:58:17;;;;;;;24.90;8.70;;;14.60;83.90;;;;;;4210404;28;20055;-65
2022/12/25 01:00:59;;;;;;;19.40;8.93;;;14.60;84.00;;;;;;4193397;28;20094;-64
2022/12/25 01:03:40;;;;;;;22.23;9.10;;;14.50;84.00;;;;;;4210024;28;20490;-61
2022/12/25 01:06:22;;;;;;;22.40;9.32;;;14.60;84.10;;;;;;4193208;28;20059;-61
2022/12/25 01:12:01;;;;;;;25.10;8.98;;;14.50;84.00;;;;;;4176952;28;20302;-61
2022/12/25 01:14:41;;;;;;;22.40;9.37;;;14.50;84.20;;;;;;4191048;28;20055;-62
2022/12/25 01:17:24;;;;;;;20.15;9.00;;;14.50;85.10;;;;;;4193911;28;20066;-62
2022/12/25 01:20:05;;;;;;;14.88;7.95;;;14.50;84.20;;;;;;4193748;28;20150;-62
2022/12/25 01:22:47;;;;;;;;;;;14.50;84.20;;;;;;4193223;28;20487;-62
2022/12/25 01:25:27;;;;;;;17.92;8.50;;;14.50;84.30;;;;;;4193311;28;20295;-62
2022/12/25 01:28:09;;;;;;;18.52;8.70;;;14.50;84.90;;;;;;4193516;28;20058;-62
2022/12/25 01:30:50;;;;;;;18.50;8.52;;;14.40;84.70;;;;;;4193596;28;20051;-62
2022/12/25 01:33:32;;;;;;;16.77;8.50;;;14.40;84.60;;;;;;4193468;28;20067;-61
2022/12/25 01:36:15;;;;;;;16.83;8.43;;;14.40;85.50;;;;;;4193562;28;20055;-61
2022/12/25 01:38:56;;;;;;;19.92;8.52;;;14.40;84.50;;;;;;4176966;28;20078;-62
2022/12/25 01:41:37;;;;;;;21.67;9.25;;;14.40;84.40;;;;;;4172482;28;20056;-62
2022/12/25 01:44:55;;;;;;;14.45;7.97;;;14.40;84.30;;;;;;4176754;28;20052;-62
2022/12/25 01:47:36;;;;;;;13.13;7.68;;;14.40;85.00;;;;;;4176815;28;20494;-62
2022/12/25 01:50:20;;;;;;;27.15;9.18;;;14.50;85.40;;;;;;4177095;28;20044;-61
2022/12/25 01:53:01;;;;;;;21.15;8.45;;;14.60;84.90;;;;;;4171698;28;20498;-62
2022/12/25 01:55:44;;;;;;;18.95;8.55;;;14.70;84.60;;;;;;4176828;28;20056;-62
2022/12/25 01:58:25;;;;;;;23.15;8.93;;;14.70;84.40;;;;;;4189446;28;20113;-62
2022/12/25 02:01:06;;;;;;;22.85;9.52;;;14.80;84.30;;;;;;4193064;28;20043;-62
2022/12/25 02:03:47;;;;;;;20.17;8.75;;;14.80;83.90;;;;;;4177945;28;20187;-62
2022/12/25 02:06:30;;;;;;;21.95;8.73;;;14.90;83.70;;;;;;4193377;28;20071;-62
2022/12/25 02:09:11;;;;;;;23.60;9.15;;;14.90;83.50;;;;;;4191968;28;20047;-61
2022/12/25 02:11:57;;;;;;;24.40;8.80;;;14.90;83.50;;;;;;4204380;28;20501;-62
2022/12/25 02:14:38;;;;;;;21.70;9.60;;;14.90;83.40;;;;;;4208900;28;20408;-62
2022/12/25 02:17:27;;;;;;;20.35;8.05;;;14.90;83.40;;;;;;4208858;28;20059;-62
2022/12/25 02:20:39;;;;;;;20.15;9.48;;;14.90;83.30;;;;;;4191110;28;20083;-62
2022/12/25 02:23:58;;;;;;;21.90;9.15;;;14.90;83.00;;;;;;4207728;28;20177;-62
2022/12/25 02:27:08;;;;;;;16.42;8.43;;;14.90;83.10;;;;;;4208574;28;20066;-62
2022/12/25 02:29:56;;;;;;;18.25;8.88;;;15.00;83.10;;;;;;4208669;28;20054;-63
2022/12/25 02:32:45;;;;;;;25.23;8.80;;;15.00;83.20;;;;;;4207836;28;20494;-62
2022/12/25 02:35:29;;;;;;;20.83;8.75;;;15.00;83.10;;;;;;4208984;28;20138;-62
2022/12/25 02:38:16;;;;;;;23.38;8.85;;;15.10;83.00;;;;;;4208914;28;20498;-62
2022/12/25 02:40:59;;;;;;;23.83;9.05;;;15.20;82.80;;;;;;4208732;28;20058;-62
2022/12/25 03:07:45;;;;;;;24.08;8.80;;;15.30;82.10;;;;;;4208121;28;20055;-62
2022/12/25 03:13:33;;;;;;;17.83;7.97;;;15.30;82.10;;;;;;4197207;28;20043;-62
2022/12/25 03:28:08;;;;;;;22.13;8.30;;;15.40;82.00;;;;;;4191075;28;20051;-64
2022/12/25 03:31:11;;;;;;;20.58;9.38;;;15.30;82.00;;;;;;4175130;28;20056;-66
2022/12/25 04:37:49;;;;;;;14.57;7.10;;;15.40;82.10;;;;;;4155742;28;20060;-62
2022/12/25 04:40:30;;;;;;;21.35;8.02;;;15.30;82.40;;;;;;4150513;28;20073;-64
2022/12/25 04:43:11;;;;;;;13.50;6.90;;;15.30;82.40;;;;;;4183945;28;20187;-62
2022/12/25 04:45:55;;;;;;;19.13;8.37;;;15.30;82.50;;;;;;4192395;28;20395;-62
2022/12/25 04:48:36;;;;;;;16.65;6.90;;;15.30;82.40;;;;;;4207955;28;20290;-61
2022/12/25 04:51:20;;;;;;;17.60;8.20;;;15.40;82.50;;;;;;4194330;28;20047;-61
2022/12/25 04:54:01;;;;;;;15.50;7.45;;;15.40;82.50;;;;;;4193970;28;20059;-64
2022/12/25 04:56:42;;;;;;;18.85;7.93;;;15.30;82.40;;;;;;4193983;28;20518;-65
2022/12/25 04:59:25;;;;;;;11.65;6.93;;;15.30;82.50;;;;;;4195436;28;20055;-65
2022/12/25 05:02:06;;;;;;;18.05;7.95;;;15.30;82.50;;;;;;4210586;28;20474;-65
2022/12/25 05:04:47;;;;;;;20.58;7.65;;;15.30;82.60;;;;;;4210513;28;20116;-64
2022/12/25 05:07:28;;;;;;;20.02;8.45;;;15.30;82.60;;;;;;4210667;28;20075;-64
2022/12/25 05:10:11;;;;;;;17.17;7.88;;;15.30;82.50;;;;;;4209007;28;20502;-65
2022/12/25 05:12:52;;;;;;;19.40;8.20;;;15.30;82.40;;;;;;4210526;28;20238;-64
2022/12/25 05:15:33;;;;;;;17.60;7.93;;;15.40;82.50;;;;;;4210515;28;20051;-65
2022/12/25 05:18:14;;;;;;;19.20;7.90;;;15.40;82.20;;;;;;4210276;28;20050;-64
2022/12/25 05:20:55;;;;;;;24.67;8.93;;;15.40;82.00;;;;;;4210142;28;20460;-66
2022/12/25 05:23:36;;;;;;;;;;;15.40;82.00;;;;;;4210680;28;20050;-65
2022/12/25 05:26:20;;;;;;;18.10;7.90;;;15.50;82.10;;;;;;4210301;28;19931;-65
2022/12/25 05:29:01;;;;;;;27.02;8.18;;;15.50;81.90;;;;;;4209031;28;20059;-65
2022/12/25 05:31:42;;;;;;;18.85;7.25;;;15.60;81.70;;;;;;4210348;28;20178;-65
2022/12/25 05:34:23;;;;;;;16.55;7.85;;;15.60;81.60;;;;;;4210283;28;20051;-64
2022/12/25 05:37:04;;;;;;;24.20;8.68;;;15.70;81.40;;;;;;4209557;28;20158;-62
2022/12/25 05:39:45;;;;;;;20.30;8.60;;;15.70;81.30;;;;;;4208821;28;20059;-61
2022/12/25 05:42:27;;;;;;;22.53;8.90;;;15.70;81.20;;;;;;4209818;28;20588;-62
2022/12/25 05:45:08;;;;;;;22.17;8.52;;;15.70;81.10;;;;;;4209772;28;20046;-61
2022/12/25 05:47:50;;;;;;;27.63;9.73;;;15.70;81.10;;;;;;4208576;28;20051;-62
2022/12/25 05:50:30;;;;;;;26.73;9.67;;;15.80;81.00;;;;;;4208844;28;20482;-62
2022/12/25 05:53:17;;;;;;;26.05;9.57;;;15.80;80.90;;;;;;4209719;28;20054;-61
2022/12/25 05:56:01;;;;;;;21.48;9.18;;;15.80;80.70;;;;;;4208399;27;20043;-62
2022/12/25 05:58:44;;;;;;;20.60;9.68;;;15.80;80.70;;;;;;4209965;28;20456;-62
2022/12/25 06:01:27;;;;;;;22.30;10.18;;;15.80;80.70;;;;;;4209619;28;20092;-62
2022/12/25 06:04:08;;;;;;;26.00;10.45;;;15.80;81.60;;;;;;4207240;28;20054;-62
2022/12/25 06:06:52;;;;;;;21.38;10.77;;;15.80;81.00;;;;;;4209594;28;20074;-62
2022/12/25 06:09:33;;;;;;;22.10;12.03;;;15.70;82.10;;;;;;4209346;28;20393;-62
2022/12/25 06:12:14;;;;;;;25.58;10.25;;;15.70;81.50;;;;;;4208315;28;20081;-62
2022/12/25 06:14:56;;;;;;;19.08;10.30;;;15.70;81.40;;;;;;4209942;28;20059;-61
2022/12/25 06:17:37;;;;;;;23.83;10.65;;;15.70;81.30;;;;;;4209301;28;20126;-62
2022/12/25 06:20:18;;;;;;;21.73;11.38;;;15.80;81.30;;;;;;4191831;28;20098;-62
2022/12/25 06:22:59;;;;;;;21.92;11.23;;;15.80;81.20;;;;;;4208701;28;20058;-62
2022/12/25 06:25:40;;;;;;;20.70;11.52;;;15.80;81.20;;;;;;4205815;28;20047;-62
2022/12/25 06:28:21;;;;;;;24.70;12.57;;;15.80;81.20;;;;;;4209365;28;20058;-62
2022/12/25 06:31:08;;;;;;;21.63;10.88;;;15.80;81.20;;;;;;4208402;28;20185;-62
2022/12/25 06:33:49;;;;;;;23.80;11.10;;;15.80;81.10;;;;;;4209436;28;20055;-62
2022/12/25 06:36:30;;;;;;;27.30;11.88;;;15.80;81.00;;;;;;4209523;28;20128;-62
2022/12/25 06:39:11;;;;;;;24.60;11.50;;;15.80;81.00;;;;;;4209143;28;20050;-62
2022/12/25 06:41:52;;;;;;;20.98;11.43;;;15.80;81.00;;;;;;4208828;28;20047;-61
2022/12/25 06:44:33;;;;;;;24.85;11.77;;;15.90;81.00;;;;;;4208664;28;20132;-61
2022/12/25 06:47:15;;;;;;;25.80;10.85;;;15.90;81.70;;;;;;4209264;28;20136;-61
2022/12/25 06:49:56;;;;;;;20.63;11.18;;;15.90;80.80;;;;;;4208569;28;20059;-61
2022/12/25 06:52:37;;;;;;;17.08;9.93;;;15.90;80.90;;;;;;4208828;28;20051;-62
2022/12/25 06:55:18;;;;;;;19.13;11.15;;;15.90;81.30;;;;;;4208630;28;20230;-65
2022/12/25 06:57:59;;;;;;;19.48;10.43;;;16.00;81.20;;;;;;4208333;28;20216;-65
2022/12/25 07:00:40;;;;;;;23.65;12.38;;;16.00;80.90;;;;;;4206618;28;20077;-65
2022/12/25 07:03:23;;;;;;;19.70;12.02;;;16.00;80.90;;;;;;4208317;28;20055;-65
2022/12/25 07:06:04;;;;;;;22.67;10.70;;;16.00;80.80;;;;;;4207798;28;20053;-65
2022/12/25 07:08:45;;;;;;;22.30;10.63;;;16.00;80.90;;;;;;4224328;28;20054;-65
2022/12/25 07:11:26;;;;;;;23.63;12.02;;;15.90;80.90;;;;;;4225387;28;20063;-65
2022/12/25 07:14:07;;;;;;;19.75;11.90;;;15.90;81.20;;;;;;4195815;28;20067;-65
2022/12/25 07:16:49;;;;;;;21.27;10.97;;;15.80;81.30;;;;;;4208271;28;20714;-64
2022/12/25 07:19:32;;;;;;;26.10;12.15;;;15.80;81.60;;;;;;4208731;28;20067;-65
2022/12/25 07:22:13;;;;;;;23.13;11.50;;;15.80;81.90;;;;;;4207581;28;20047;-65
2022/12/25 07:24:54;;;;;;;24.25;11.93;;;15.80;81.90;;;;;;4208859;28;20051;-65
2022/12/25 07:27:34;;;;;;;23.38;13.13;;;15.90;81.70;;;;;;4208502;28;20059;-64
2022/12/25 07:30:16;;;;;;;24.58;13.02;;;15.90;81.50;;;;;;4208278;28;20129;-65
2022/12/25 07:32:57;;;;;;;27.13;13.07;;;15.90;81.50;;;;;;4208518;28;20185;-65
2022/12/25 07:35:40;;;;;;;24.25;12.23;;;15.90;81.40;;;;;;4208540;28;20051;-65
2022/12/25 07:38:20;;;;;;;20.80;11.55;;;15.80;81.40;;;;;;4191452;28;20056;-65
2022/12/25 07:41:01;;;;;;;23.80;11.68;;;15.80;81.50;;;;;;4207758;28;20121;-66
2022/12/25 07:43:43;;;;;;;17.45;11.02;;;15.80;81.60;;;;;;4192735;28;20051;-65
2022/12/25 07:46:24;;;;;;;22.85;11.35;;;15.70;81.80;;;;;;4191877;28;20527;-66
2022/12/25 07:49:05;;;;;;;24.42;12.43;;;15.70;82.10;;;;;;4199151;28;20387;-65
2022/12/25 07:51:47;;;;;;;25.52;12.27;;;15.80;82.10;;;;;;4208640;28;20101;-66
2022/12/25 07:54:28;;;;;;;23.30;12.25;;;15.80;82.50;;;;;;4208540;28;20055;-65
2022/12/25 07:57:09;;;;;;;23.02;11.70;;;15.90;81.50;;;;;;4191380;28;20058;-65
2022/12/25 07:59:50;;;;;;;18.80;11.18;;;15.90;81.50;;;;;;4191905;28;20047;-65
2022/12/25 08:02:31;;;;;;;25.40;12.10;;;15.90;81.40;;;;;;4193978;28;20097;-66
2022/12/25 08:05:12;;;;;;;17.35;11.20;;;16.00;81.20;;;;;;4207608;28;20051;-66
2022/12/25 08:07:54;;;;;;;20.30;11.88;;;16.00;81.20;;;;;;4195613;28;20094;-66
2022/12/25 08:10:37;;;;;;;24.13;11.75;;;16.00;81.10;;;;;;4206990;28;20100;-60
2022/12/25 08:13:18;;;;;;;19.53;11.10;;;16.00;81.10;;;;;;4219329;28;20182;-61
2022/12/25 08:16:01;;;;;;;16.08;10.23;;;16.00;81.20;;;;;;4207890;28;20659;-65
2022/12/25 08:18:42;;;;;;;19.02;9.82;;;16.00;81.20;;;;;;4204468;28;20055;-66
2022/12/25 08:21:23;;;;;;;18.80;10.30;;;15.90;81.20;;;;;;4210411;28;20486;-66
2022/12/25 08:24:06;;;;;;;18.90;10.10;;;15.90;81.40;;;;;;4215589;28;20124;-67
2022/12/25 08:26:47;;;;;;;21.42;9.90;;;15.90;81.50;;;;;;4190570;28;20044;-66
2022/12/25 08:29:28;;;;;;;16.45;8.95;;;15.80;81.60;;;;;;4207565;28;20129;-66
2022/12/25 08:32:09;;;;;;;12.23;9.00;;;15.80;81.80;;;;;;4210927;28;20051;-66
2022/12/25 08:34:50;;;;;;;14.45;8.32;;;15.80;82.10;;;;;;4205779;28;20051;-61
2022/12/25 08:37:31;;;;;;;12.02;8.50;;;15.80;82.00;;;;;;4201838;28;20398;-61
2022/12/25 08:40:13;;;;;;;15.77;8.70;;;15.90;81.80;;;;;;4203843;28;20113;-66
2022/12/25 08:42:56;;;;;;;13.52;8.32;;;15.90;81.60;;;;;;4188836;28;20050;-65
2022/12/25 08:45:37;;;;;;;13.50;8.20;;;16.00;81.50;;;;;;4177035;28;20480;-61
2022/12/25 08:48:18;;;;;;;12.32;7.50;;;15.90;81.40;;;;;;4202782;28;20559;-61
2022/12/25 08:51:00;;;;;;;13.57;7.47;;;15.90;81.30;;;;;;4210573;28;20170;-60
2022/12/25 08:53:41;;;;;;;13.32;7.10;;;15.90;81.50;;;;;;4210974;28;20048;-62
2022/12/25 08:56:23;;;;;;;12.32;8.00;;;15.90;82.10;;;;;;4210435;28;20158;-62
2022/12/25 08:59:04;;;;;;;10.85;7.70;;;15.90;82.40;;;;;;4208968;28;20051;-62
2022/12/25 09:01:45;;;;;;;10.18;7.32;;;15.90;83.00;;;;;;4201145;28;20098;-60
2022/12/25 09:04:26;;;;;;;12.23;7.35;;;15.90;82.00;;;;;;4209855;28;20074;-60
2022/12/25 09:07:07;;;;;;;12.65;7.35;;;15.90;81.90;;;;;;4209847;28;20055;-60
2022/12/25 09:09:48;;;;;;;10.50;6.90;;;15.80;81.90;;;;;;4209215;28;20046;-60
2022/12/25 09:12:30;;;;;;;12.25;6.55;;;15.80;81.90;;;;;;4210382;28;20465;-60
2022/12/25 09:15:11;;;;;;;11.48;6.43;;;15.80;82.10;;;;;;4210320;28;20051;-60
2022/12/25 09:17:52;;;;;;;9.65;6.07;;;15.90;82.10;;;;;;4210123;27;20371;-60
2022/12/25 09:20:33;;;;;;;8.27;5.13;;;15.90;81.90;;;;;;4209563;28;20051;-60
2022/12/25 09:23:13;;;;;;;6.90;5.93;;;15.90;81.50;;;;;;4210076;28;20494;-60
2022/12/25 09:25:54;;;;;;;10.50;5.55;;;16.00;81.60;;;;;;4210389;28;20297;-60
2022/12/25 09:28:37;;;;;;;7.35;5.50;;;16.00;81.40;;;;;;4209504;28;20063;-60
2022/12/25 09:31:18;;;;;;;7.43;5.45;;;15.90;81.20;;;;;;4209588;28;20051;-60
2022/12/25 09:33:59;;;;;;;9.95;4.85;;;15.90;81.20;;;;;;4210578;28;20050;-61
2022/12/25 09:36:40;;;;;;;8.50;5.72;;;15.90;81.40;;;;;;4210011;28;20085;-61
2022/12/25 09:39:22;;;;;;;8.48;5.00;;;15.90;81.70;;;;;;4208524;28;20080;-61
2022/12/25 09:42:10;;;;;;;7.82;5.30;;;16.20;81.00;;;;;;4210066;28;20050;-61
2022/12/25 09:44:56;;;;;;;12.60;6.05;;;16.50;79.60;;;;;;4209781;28;20190;-60
2022/12/25 09:47:42;;;;;;;9.43;4.78;;;17.00;77.90;;;;;;4209929;28;20085;-61
2022/12/25 09:50:35;;;;;;;8.85;4.47;;;17.50;76.00;;;;;;4208710;28;20047;-61
2022/12/25 09:53:21;;;;;;;10.13;4.97;;;18.00;73.90;;;;;;4209405;28;20096;-61
2022/12/25 09:56:09;;;;;;;9.73;5.22;;;18.40;71.70;;;;;;4208640;28;20565;-61
2022/12/25 09:58:50;;;;;;;10.35;6.70;;;18.90;69.90;;;;;;4209517;28;20054;-60
2022/12/25 10:01:39;;;;;;;9.93;4.60;;;19.20;68.40;;;;;;4210065;28;20055;-61
2022/12/25 10:04:34;;;;;;;6.70;4.05;;;19.50;67.00;;;;;;4209750;28;20054;-61
2022/12/25 10:07:30;;;;;;;5.32;3.90;;;19.70;66.10;;;;;;4209596;28;20490;-60
2022/12/25 10:10:27;;;;;;;6.97;4.18;;;19.70;65.40;;;;;;4209379;28;20047;-60
2022/12/25 10:13:22;;;;;;;6.07;4.20;;;19.70;65.30;;;;;;4209168;28;20058;-61
2022/12/25 10:16:13;;;;;;;6.40;4.35;;;19.60;65.50;;;;;;4209113;28;20059;-59
2022/12/25 10:19:10;;;;;;;7.53;4.05;;;19.50;66.00;;;;;;4209466;28;20502;-61
2022/12/25 10:21:54;;;;;;;7.38;4.50;;;19.40;66.40;;;;;;4209262;28;20510;-60
2022/12/25 10:24:40;;;;;;;6.15;4.30;;;19.40;66.60;;;;;;4209602;28;20503;-60
2022/12/25 10:27:29;;;;;;;6.07;3.95;;;19.40;66.60;;;;;;4191945;28;20056;-60
2022/12/25 10:30:16;;;;;;;6.57;3.92;;;19.40;66.50;;;;;;4192753;28;20170;-61
2022/12/25 10:32:58;;;;;;;4.90;3.17;;;19.40;66.40;;;;;;4192714;28;20059;-61
2022/12/25 10:35:40;;;;;;;;;;;19.50;66.50;;;;;;4192017;28;20082;-61
2022/12/25 10:38:22;;;;;;;6.18;3.60;;;19.50;66.60;;;;;;4192552;28;20648;-60
2022/12/25 10:41:17;;;;;;;5.93;3.15;;;19.50;66.30;;;;;;4192582;28;20086;-61
2022/12/25 10:43:58;;;;;;;6.40;3.30;;;19.50;66.10;;;;;;4192043;28;20121;-61
2022/12/25 10:46:40;;;;;;;6.37;3.67;;;19.50;66.30;;;;;;4192408;28;20407;-61
2022/12/25 10:49:23;;;;;;;4.57;3.53;;;19.50;66.40;;;;;;4192001;28;20471;-60
2022/12/25 10:52:19;;;;;;;6.97;3.80;;;19.50;66.40;;;;;;4192149;28;20114;-62
2022/12/25 10:55:11;;;;;;;8.95;3.85;;;19.50;66.20;;;;;;4191908;28;20051;-61
2022/12/25 10:57:53;;;;;;;;;;;19.50;66.10;;;;;;4192822;28;20072;-62
2022/12/25 11:00:34;;;;;;;6.30;3.70;;;19.60;66.30;;;;;;4192299;28;20275;-61
2022/12/25 11:03:23;;;;;;;6.35;3.22;;;19.60;66.10;;;;;;4192147;28;20051;-60
2022/12/25 11:06:05;;;;;;;5.47;3.03;;;19.60;66.00;;;;;;4191792;28;20051;-62
2022/12/25 11:08:51;;;;;;;5.53;3.30;;;19.70;65.90;;;;;;4191533;28;20509;-61
2022/12/25 11:11:40;;;;;;;5.65;3.28;;;19.70;65.70;;;;;;4191794;28;20179;-61
2022/12/25 11:14:24;;;;;;;4.03;3.13;;;19.70;65.70;;;;;;4192193;28;20076;-62
2022/12/25 11:17:08;;;;;;;7.53;3.40;;;19.70;65.60;;;;;;4187831;28;20186;-62
2022/12/25 11:19:53;;;;;;;4.95;3.33;;;19.60;65.70;;;;;;4207634;28;20182;-62
2022/12/25 11:22:37;;;;;;;6.00;3.38;;;19.60;65.80;;;;;;4191759;28;20056;-64
2022/12/25 11:25:24;;;;;;;5.20;3.35;;;19.60;65.80;;;;;;4191819;28;20047;-62
2022/12/25 11:28:06;;;;;;;6.53;3.63;;;19.70;65.90;;;;;;4191571;28;20137;-61
2022/12/25 11:30:52;;;;;;;9.10;4.53;;;19.70;65.80;;;;;;4192013;28;20059;-61
2022/12/25 11:33:37;;;;;;;6.50;4.05;;;19.70;65.70;;;;;;4194958;28;20105;-60
2022/12/25 11:36:22;;;;;;;10.07;4.88;;;19.70;65.70;;;;;;4208685;28;20054;-61
2022/12/25 11:39:14;;;;;;;4.43;3.55;;;19.60;65.70;;;;;;4207697;28;20379;-60
2022/12/25 11:42:01;;;;;;;6.50;4.03;;;19.60;65.80;;;;;;4208664;28;20967;-60
2022/12/25 11:44:49;;;;;;;5.20;3.28;;;19.40;66.20;;;;;;4208469;28;20051;-60
2022/12/25 11:47:37;;;;;;;5.10;3.10;;;19.40;66.70;;;;;;4195702;28;20059;-61
2022/12/25 11:50:24;;;;;;;5.75;2.92;;;19.40;67.00;;;;;;4208611;28;20436;-60
2022/12/25 11:53:10;;;;;;;5.07;3.53;;;19.40;66.90;;;;;;4208086;28;20136;-61
2022/12/25 11:55:55;;;;;;;4.55;3.28;;;19.40;66.90;;;;;;4211584;28;20066;-62
2022/12/25 11:58:42;;;;;;;5.43;3.47;;;19.50;66.80;;;;;;4212549;28;20182;-62
2022/12/25 12:01:31;;;;;;;5.63;3.60;;;19.50;66.50;;;;;;4211591;28;20152;-63
2022/12/25 12:04:23;;;;;;;6.72;3.42;;;19.60;66.50;;;;;;4211882;28;20043;-62
2022/12/25 12:07:19;;;;;;;7.25;4.03;;;19.60;66.30;;;;;;4211603;28;20050;-60
2022/12/25 12:10:08;;;;;;;6.78;3.85;;;19.60;66.20;;;;;;4211711;28;20055;-62
2022/12/25 12:12:57;;;;;;;5.78;3.83;;;19.60;66.30;;;;;;4211959;28;20070;-60
2022/12/25 12:15:43;;;;;;;5.78;3.55;;;19.60;66.30;;;;;;4211519;28;20055;-61
2022/12/25 12:18:30;;;;;;;6.03;3.47;;;19.70;66.10;;;;;;4211393;28;20051;-61
2022/12/25 12:21:21;;;;;;;3.92;3.50;;;19.70;65.90;;;;;;4211358;28;20067;-59
2022/12/25 12:24:06;;;;;;;7.05;3.70;;;19.70;65.70;;;;;;4211403;28;20062;-61
2022/12/25 12:26:59;;;;;;;7.47;4.10;;;19.70;65.90;;;;;;4211349;28;20397;-61
2022/12/25 12:29:44;;;;;;;5.53;3.90;;;19.60;66.20;;;;;;4193208;28;20051;-60
2022/12/25 12:32:35;;;;;;;5.28;3.80;;;19.50;66.50;;;;;;4194772;28;20060;-60
2022/12/25 12:35:19;;;;;;;4.72;4.05;;;19.50;66.50;;;;;;4194814;28;20055;-62
2022/12/25 12:38:04;;;;;;;8.02;3.92;;;19.60;66.60;;;;;;4192872;28;20048;-62
2022/12/25 12:40:53;;;;;;;5.18;3.58;;;19.60;66.50;;;;;;4195183;28;20121;-62
2022/12/25 12:43:37;;;;;;;7.88;4.15;;;19.60;66.20;;;;;;4211100;28;20066;-62
2022/12/25 12:46:21;;;;;;;8.02;4.40;;;19.70;66.30;;;;;;4211185;28;20540;-62
2022/12/25 12:49:24;;;;;;;6.88;4.13;;;19.70;66.20;;;;;;4211292;28;20659;-62
2022/12/25 12:52:20;;;;;;;7.72;3.95;;;19.70;66.00;;;;;;4210516;28;20055;-62
2022/12/25 12:55:04;;;;;;;6.95;3.85;;;19.70;66.00;;;;;;4193374;28;20143;-62
2022/12/25 12:57:45;;;;;;;4.25;3.75;;;19.70;66.30;;;;;;4193676;28;20121;-62
2022/12/25 13:00:32;;;;;;;5.00;3.70;;;19.60;66.60;;;;;;4194153;28;20048;-62
2022/12/25 13:03:34;;;;;;;4.97;3.70;;;19.50;66.70;;;;;;4193654;28;20055;-62
2022/12/25 13:06:23;;;;;;;6.82;3.78;;;19.40;67.00;;;;;;4205521;28;20071;-62
2022/12/25 13:09:13;;;;;;;5.80;3.40;;;19.30;67.60;;;;;;4197151;28;20055;-62
2022/12/25 13:11:53;;;;;;;4.40;3.80;;;19.20;67.90;;;;;;4210154;28;20082;-61
2022/12/25 13:14:36;;;;;;;3.17;2.88;;;19.30;68.20;;;;;;4210445;28;20105;-62
2022/12/25 13:17:21;;;;;;;4.80;3.47;;;19.30;68.00;;;;;;4210345;28;20071;-62
2022/12/25 13:20:02;;;;;;;6.40;3.60;;;19.40;68.70;;;;;;4210455;28;20149;-61
2022/12/25 13:22:45;;;;;;;7.10;4.05;;;19.40;67.70;;;;;;4210672;28;20043;-62
2022/12/25 13:25:32;;;;;;;7.15;4.65;;;19.40;67.60;;;;;;4210284;28;20090;-62
2022/12/25 13:28:14;;;;;;;7.30;4.53;;;19.40;67.50;;;;;;4209090;28;20059;-62
2022/12/25 13:31:02;;;;;;;5.78;4.10;;;19.40;67.50;;;;;;4209841;28;20121;-63
2022/12/25 13:33:46;;;;;;;7.03;4.45;;;19.50;67.30;;;;;;4210143;28;20190;-62
2022/12/25 13:36:28;;;;;;;6.75;5.60;;;19.60;67.20;;;;;;4210321;27;20054;-62
2022/12/25 13:39:16;;;;;;;13.57;8.02;;;19.50;67.00;;;;;;4209651;28;20047;-63
2022/12/25 13:42:09;;;;;;;10.70;5.50;;;19.50;67.10;;;;;;4210284;28;20055;-62
2022/12/25 13:44:52;;;;;;;6.28;3.83;;;19.50;67.40;;;;;;4208419;28;20059;-61
2022/12/25 13:47:35;;;;;;;6.38;4.75;;;19.50;67.30;;;;;;4208858;28;20059;-61
2022/12/25 13:50:20;;;;;;;5.25;4.45;;;19.60;67.20;;;;;;4210349;28;20146;-60
2022/12/25 13:53:13;;;;;;;8.35;4.53;;;19.60;67.10;;;;;;4210079;28;20125;-61
2022/12/25 13:55:58;;;;;;;5.25;3.90;;;19.60;66.80;;;;;;4193259;28;20063;-61
2022/12/25 13:58:39;;;;;;;7.03;4.30;;;19.60;66.90;;;;;;4193135;28;20185;-60
2022/12/25 14:01:20;;;;;;;5.50;4.95;;;19.70;66.90;;;;;;4209908;28;20051;-61
2022/12/25 14:04:03;;;;;;;9.38;5.72;;;19.60;66.90;;;;;;4193266;28;20130;-61
2022/12/25 14:06:44;;;;;;;8.13;5.75;;;19.60;67.10;;;;;;4208982;28;20047;-60
2022/12/25 14:09:25;;;;;;;7.43;4.85;;;19.60;67.00;;;;;;4209778;28;20051;-61
2022/12/25 14:12:08;;;;;;;7.32;4.85;;;19.70;66.90;;;;;;4191942;28;20052;-61
2022/12/25 14:14:56;;;;;;;8.07;5.35;;;19.70;66.80;;;;;;4192466;28;20098;-61
2022/12/25 14:17:37;;;;;;;7.00;5.43;;;19.60;66.80;;;;;;4192320;28;20410;-61
2022/12/25 14:20:26;;;;;;;8.02;6.13;;;19.50;67.00;;;;;;4192497;28;20055;-61
2022/12/25 14:23:11;;;;;;;8.10;6.03;;;19.50;67.20;;;;;;4209428;28;20161;-61
2022/12/25 14:25:52;;;;;;;11.05;6.53;;;19.40;67.80;;;;;;4208323;28;20136;-60
2022/12/25 14:28:36;;;;;;;15.25;9.90;;;19.30;68.30;;;;;;4209269;28;20055;-61
2022/12/25 14:31:18;;;;;;;11.38;8.75;;;19.30;69.30;;;;;;4209424;28;20050;-61
2022/12/25 14:34:01;;;;;;;11.88;7.70;;;19.40;68.40;;;;;;4209115;28;20054;-61
2022/12/25 14:36:43;;;;;;;7.60;5.43;;;19.40;68.00;;;;;;4207619;28;20501;-61
2022/12/25 14:39:30;;;;;;;12.38;6.03;;;19.40;67.80;;;;;;4209198;28;20062;-60
2022/12/25 14:42:18;;;;;;;6.97;5.10;;;19.40;67.70;;;;;;4209234;28;20051;-61
2022/12/25 14:45:05;;;;;;;13.43;7.57;;;19.40;67.80;;;;;;4208753;28;20067;-60
2022/12/25 14:47:51;;;;;;;8.05;5.47;;;19.50;67.80;;;;;;4209280;28;20398;-61
2022/12/25 14:50:36;;;;;;;12.05;8.30;;;19.40;67.70;;;;;;4209207;28;20059;-61
2022/12/25 14:53:19;;;;;;;11.90;7.63;;;19.30;67.90;;;;;;4209159;28;20066;-60
2022/12/25 14:56:01;;;;;;;12.25;7.38;;;19.30;68.30;;;;;;4208913;28;20051;-60
2022/12/25 14:58:46;;;;;;;8.32;7.35;;;19.20;68.70;;;;;;4208932;28;20196;-60
2022/12/25 15:01:32;;;;;;;6.88;6.10;;;19.20;68.80;;;;;;4209074;28;20046;-60
2022/12/25 15:04:16;;;;;;;8.40;6.30;;;19.30;68.70;;;;;;4209100;28;20097;-60
2022/12/25 15:06:59;;;;;;;7.10;5.78;;;19.40;68.40;;;;;;4208934;28;20058;-60
2022/12/25 15:09:40;;;;;;;7.35;6.53;;;19.40;68.20;;;;;;4208831;28;20047;-61
2022/12/25 15:12:21;;;;;;;8.07;6.65;;;19.40;68.10;;;;;;4206871;28;20055;-60
2022/12/25 15:15:02;;;;;;;8.50;6.57;;;19.50;68.20;;;;;;4191433;28;20071;-59
2022/12/25 15:17:44;;;;;;;8.88;6.22;;;19.40;68.30;;;;;;4192123;28;20043;-59
2022/12/25 15:20:30;;;;;;;11.20;7.22;;;19.50;68.60;;;;;;4191022;28;20055;-59
2022/12/25 15:23:15;;;;;;;9.02;7.43;;;19.40;68.50;;;;;;4191957;28;20047;-60
2022/12/25 15:26:00;;;;;;;8.98;7.20;;;19.40;68.60;;;;;;4203547;28;20047;-59
2022/12/25 15:28:41;;;;;;;8.18;7.38;;;19.40;69.70;;;;;;4207697;28;20181;-59
2022/12/25 15:31:25;;;;;;;8.20;7.38;;;19.30;69.00;;;;;;4208618;28;20148;-59
2022/12/25 15:34:16;;;;;;;8.10;7.30;;;19.20;69.40;;;;;;4189220;28;20102;-60
2022/12/25 15:36:57;;;;;;;9.27;7.28;;;19.20;69.60;;;;;;4191954;28;20066;-60
2022/12/25 15:39:38;;;;;;;9.60;8.35;;;19.20;69.80;;;;;;4192003;28;20097;-61
2022/12/25 15:42:22;;;;;;;9.98;9.07;;;19.20;69.90;;;;;;4191590;28;20051;-59
2022/12/25 15:45:04;;;;;;;9.60;8.70;;;19.20;70.30;;;;;;4195531;28;20051;-59
2022/12/25 15:47:45;;;;;;;9.55;8.55;;;19.10;70.40;;;;;;4208435;28;20047;-60
2022/12/25 15:50:28;;;;;;;8.90;8.07;;;19.20;70.40;;;;;;4193327;28;20059;-60
2022/12/25 15:53:10;;;;;;;9.80;8.80;;;19.10;70.30;;;;;;4191717;28;20052;-59
2022/12/25 15:55:52;;;;;;;9.68;8.15;;;19.10;70.50;;;;;;4208080;28;20054;-59